Latest Weather Observations for Beerburrum

IDQ60901

Issued at 8:01 pm EST Friday 29 April 2016 (issued every 10 minutes, with the page automatically refreshed every 10 minutes)

About weather observations | Map of Brisbane area stations | Latest observations for Brisbane area | Other Formats
Station Details ID: 040284 Name: BEERBURRUM FOREST STATION Lat: -26.96 Lon: 152.96 Height: 48.0 m
Data from the previous 72 hours. | See also: Recent months at Beerburrum
Date/Time
EST
Tmp

°C
App
Tmp
°C
Dew
Point
°C
Rel
Hum
%
Delta-T

°C
Wind Press
QNH
hPa
Press
MSL
hPa
Rain
since
9 am
mm
Dir
 
Spd
km/h
Gust
km/h
Spd
kts
Gust
kts
29/08:00pm 20.4 22.6 19.1 92 0.8 N 6 9 3 5 - - 8.6
29/07:30pm 20.6 22.8 19.3 92 0.8 N 6 9 3 5 - - 7.6
29/07:00pm 20.6 24.0 19.3 92 0.8 CALM 0 0 0 0 - - 7.4
29/06:30pm 20.9 23.3 19.6 92 0.8 SSW 6 9 3 5 - - 7.4
29/06:00pm 21.0 24.1 19.5 91 1.0 WSW 2 6 1 3 - - 7.4
29/05:30pm 21.3 24.9 19.8 91 1.0 CALM 0 0 0 0 - - 7.4
29/05:00pm 21.5 25.1 19.8 90 1.1 CALM 0 0 0 0 - - 7.4
29/04:30pm 21.9 25.6 20.0 89 1.2 CALM 0 0 0 0 - - 7.4
29/04:00pm 22.3 26.2 20.4 89 1.2 CALM 0 0 0 0 - - 7.0
29/03:30pm 22.2 26.0 20.1 88 1.4 CALM 0 0 0 0 - - 7.0
29/03:00pm 22.2 25.9 19.9 87 1.5 CALM 0 0 0 0 - - 7.0
29/02:30pm 21.8 25.5 19.9 89 1.2 CALM 0 0 0 0 - - 7.0
29/02:00pm 21.5 24.5 20.0 91 1.0 N 4 9 2 5 - - 7.0
29/01:30pm 21.7 23.8 19.4 87 1.5 N 7 11 4 6 - - 1.0
29/01:00pm 22.6 25.9 19.2 81 2.2 CALM 0 0 0 0 - - 0.2
29/12:30pm 22.9 25.1 19.1 79 2.4 SSE 6 9 3 5 - - 0.2
29/12:00pm 23.4 26.1 19.5 79 2.5 SSW 4 7 2 4 - - 0.2
29/11:30am 22.3 24.3 18.7 80 2.3 S 6 11 3 6 - - 0.2
29/11:00am 22.7 25.2 19.9 84 1.8 SW 6 11 3 6 - - 0.2
29/10:30am 21.8 24.5 19.4 86 1.5 WSW 4 9 2 5 - - 0.0
29/10:00am 21.3 23.6 19.4 89 1.2 SW 6 9 3 5 - - 0.0
29/09:30am 20.5 22.6 19.0 91 0.9 SSW 6 11 3 6 - - 0.0
29/09:00am 20.3 22.4 19.0 92 0.8 SW 6 13 3 7 - - 2.0
29/08:30am 19.8 21.7 18.6 93 0.7 SSW 6 9 3 5 - - 2.0
29/08:00am 19.2 21.3 18.0 93 0.7 SW 4 7 2 4 - - 2.0
29/07:30am 18.8 20.7 17.6 93 0.7 SW 4 7 2 4 - - 2.0
29/07:00am 18.4 20.5 17.2 93 0.7 SW 2 7 1 4 - - 2.0
29/06:30am 18.1 20.5 16.9 93 0.7 CALM 0 0 0 0 - - 2.0
29/06:00am 17.8 20.1 16.7 93 0.7 CALM 0 0 0 0 - - 2.0
29/05:30am 17.8 20.1 16.7 93 0.7 CALM 0 0 0 0 - - 2.0
29/05:00am 17.8 20.1 16.8 94 0.6 CALM 0 0 0 0 - - 2.0
29/04:30am 17.7 19.6 16.7 94 0.6 WSW 2 6 1 3 - - 2.0
29/04:00am 17.1 18.0 16.1 94 0.6 SW 6 7 3 4 - - 2.0
29/03:30am 16.3 17.6 15.2 93 0.6 SW 2 6 1 3 - - 2.0
29/03:00am 16.4 17.4 15.3 93 0.6 SW 4 6 2 3 - - 2.0
29/02:30am 16.3 16.9 15.2 93 0.6 SW 6 7 3 4 - - 2.0
29/02:00am 16.5 17.1 15.4 93 0.6 SW 6 7 3 4 - - 2.0
29/01:30am 16.6 17.3 15.5 93 0.6 SW 6 7 3 4 - - 2.0
29/01:00am 17.1 18.0 16.0 93 0.7 SSW 6 7 3 4 - - 2.0
29/12:30am 17.0 17.8 15.9 93 0.6 SW 6 9 3 5 - - 1.8
29/12:00am 16.4 17.0 15.3 93 0.6 SW 6 7 3 4 - - 1.8
 
Date/Time
EST
Tmp

°C
App
Tmp
°C
Dew
Point
°C
Rel
Hum
%
Delta-T

°C
Wind Press
QNH
hPa
Press
MSL
hPa
Rain
since
9 am
mm
Dir
 
Spd
km/h
Gust
km/h
Spd
kts
Gust
kts
28/11:30pm 16.5 17.1 15.4 93 0.6 SW 6 7 3 4 - - 1.8
28/11:00pm 16.5 17.9 15.4 93 0.6 SW 2 6 1 3 - - 1.8
28/10:30pm 16.9 18.8 15.8 93 0.6 CALM 0 0 0 0 - - 1.8
28/10:00pm 17.0 18.9 15.7 92 0.8 CALM 0 0 0 0 - - 1.8
28/09:30pm 17.1 19.0 15.8 92 0.8 CALM 0 0 0 0 - - 1.8
28/09:00pm 17.5 19.6 16.2 92 0.8 CALM 0 0 0 0 - - 1.8
28/08:30pm 17.7 19.9 16.4 92 0.8 CALM 0 0 0 0 - - 1.8
28/08:00pm 18.1 20.4 16.8 92 0.8 CALM 0 0 0 0 - - 1.8
28/07:30pm 18.3 20.6 16.8 91 0.9 CALM 0 0 0 0 - - 1.8
28/07:00pm 18.6 21.0 17.1 91 0.9 CALM 0 0 0 0 - - 1.8
28/06:30pm 19.0 21.5 17.3 90 1.0 CALM 0 0 0 0 - - 1.8
28/06:00pm 19.3 21.9 17.6 90 1.0 CALM 0 0 0 0 - - 1.8
28/05:30pm 20.0 22.9 18.1 89 1.2 CALM 0 0 0 0 - - 1.8
28/05:00pm 20.0 22.9 18.1 89 1.2 CALM 0 0 0 0 - - 1.8
28/04:30pm 20.1 22.9 18.0 88 1.3 CALM 0 0 0 0 - - 1.8
28/04:00pm 20.7 22.8 17.1 80 2.2 N 2 7 1 4 - - 0.8
28/03:30pm 22.3 24.6 16.8 71 3.4 CALM 0 6 0 3 - - 0.2
28/03:00pm 21.8 22.5 17.0 74 2.9 SSE 9 15 5 8 - - 0.2
28/02:30pm 24.8 25.9 17.0 62 4.8 E 7 11 4 6 - - 0.2
28/02:00pm 26.2 26.9 17.0 57 5.7 SE 9 15 5 8 - - 0.2
28/01:30pm 24.9 25.4 16.6 60 5.1 ESE 9 17 5 9 - - 0.2
28/01:00pm 24.7 24.7 16.2 59 5.2 ESE 11 20 6 11 - - 0.2
28/12:30pm 25.3 26.6 17.5 62 4.9 E 7 15 4 8 - - 0.2
28/12:00pm 26.0 26.7 17.9 61 5.1 ESE 11 19 6 10 - - 0.2
28/11:30am 25.9 27.0 18.1 62 4.9 E 9 17 5 9 - - 0.2
28/11:00am 25.5 26.3 18.2 64 4.6 E 11 19 6 10 - - 0.2
28/10:30am 24.9 26.8 18.6 68 4.0 SSE 6 9 3 5 - - 0.0
28/10:00am 23.6 25.3 18.5 73 3.2 SSE 7 15 4 8 - - 0.0
28/09:30am 22.1 24.2 18.9 82 2.0 SSE 6 9 3 5 - - 0.0
28/09:00am 22.4 24.6 19.2 82 2.0 SW 6 7 3 4 - - 2.4
28/08:30am 20.7 22.6 18.6 88 1.3 SW 6 9 3 5 - - 2.4
28/08:00am 19.1 20.8 18.1 94 0.6 SW 6 7 3 4 - - 2.4
28/07:30am 18.0 19.3 17.0 94 0.6 SSW 6 7 3 4 - - 2.4
28/07:00am 16.5 17.2 15.5 94 0.6 SW 6 7 3 4 - - 2.4
28/06:30am 15.8 16.2 14.8 94 0.6 SSW 6 7 3 4 - - 2.4
28/06:00am 15.9 16.4 14.9 94 0.6 SW 6 7 3 4 - - 2.4
28/05:30am 15.7 16.1 14.7 94 0.6 SW 6 7 3 4 - - 2.4
28/05:00am 15.6 15.9 14.6 94 0.6 SW 6 7 3 4 - - 2.4
28/04:30am 15.6 15.9 14.5 93 0.6 SW 6 7 3 4 - - 2.4
28/04:00am 15.5 15.8 14.4 93 0.6 SW 6 7 3 4 - - 2.4
28/03:30am 15.7 16.0 14.6 93 0.6 SW 6 7 3 4 - - 2.2
28/03:00am 15.9 16.3 14.8 93 0.6 SW 6 6 3 3 - - 2.2
28/02:30am 16.0 16.5 14.9 93 0.6 SW 6 7 3 4 - - 2.2
28/02:00am 16.2 16.7 15.1 93 0.6 SW 6 7 3 4 - - 2.2
28/01:30am 16.1 16.6 15.0 93 0.6 SW 6 7 3 4 - - 2.2
28/01:00am 16.2 16.7 15.1 93 0.6 SW 6 7 3 4 - - 2.2
28/12:30am 16.4 17.8 15.3 93 0.6 SW 2 7 1 4 - - 2.2
28/12:00am 16.5 18.2 15.2 92 0.8 CALM 0 0 0 0 - - 2.2
 
Date/Time
EST
Tmp

°C
App
Tmp
°C
Dew
Point
°C
Rel
Hum
%
Delta-T

°C
Wind Press
QNH
hPa
Press
MSL
hPa
Rain
since
9 am
mm
Dir
 
Spd
km/h
Gust
km/h
Spd
kts
Gust
kts
27/11:30pm 16.8 18.6 15.5 92 0.8 CALM 0 0 0 0 - - 2.2
27/11:00pm 17.1 19.0 15.8 92 0.8 CALM 0 0 0 0 - - 2.2
27/10:30pm 17.3 19.3 16.0 92 0.8 CALM 0 0 0 0 - - 2.2
27/10:00pm 17.6 18.6 16.3 92 0.8 SSW 6 6 3 3 - - 2.2
27/09:30pm 17.9 19.4 16.6 92 0.8 SW 4 6 2 3 - - 2.2
27/09:00pm 18.1 20.4 16.8 92 0.8 CALM 0 0 0 0 - - 2.0
27/08:30pm 18.2 20.5 16.7 91 0.9 CALM 0 0 0 0 - - 2.0
27/08:00pm 18.5 20.4 16.8 90 1.0 SW 2 6 1 3 - - 2.0
27/07:30pm 19.1 21.7 17.6 91 0.9 CALM 0 0 0 0 - - 2.0
27/07:00pm 19.1 20.8 17.2 89 1.2 SSW 4 11 2 6 - - 1.8
27/06:30pm 18.8 21.0 16.4 86 1.4 CALM 0 0 0 0 - - 1.8
27/06:00pm 19.5 21.0 16.7 84 1.7 SSW 4 7 2 4 - - 1.8
27/05:30pm 20.5 21.8 17.1 81 2.1 S 6 13 3 7 - - 1.8
27/05:00pm 21.4 22.5 17.2 77 2.6 S 7 19 4 10 - - 1.8
27/04:30pm 22.0 23.3 17.6 76 2.7 SSE 7 15 4 8 - - 1.8
27/04:00pm 21.9 23.3 17.9 78 2.5 S 7 17 4 9 - - 1.8
27/03:30pm 22.2 23.9 18.4 79 2.4 S 7 17 4 9 - - 1.8
27/03:00pm 21.6 23.6 18.8 84 1.8 S 6 11 3 6 - - 1.8
27/02:30pm 21.2 23.4 19.1 88 1.3 SSE 6 13 3 7 - - 1.8
27/02:00pm 21.4 22.2 17.4 78 2.5 SSE 9 22 5 12 - - 1.2
27/01:30pm 22.7 23.0 16.9 70 3.6 S 11 22 6 12 - - 1.0
27/01:00pm 22.5 25.1 19.3 82 2.0 SSE 4 9 2 5 - - 1.0
27/12:30pm 22.3 23.4 17.9 76 2.7 SSE 9 24 5 13 - - 0.6
27/12:00pm 21.6 22.8 18.2 81 2.1 ESE 9 19 5 10 - - 0.6
27/11:30am 23.0 23.4 17.2 70 3.6 SSE 11 24 6 13 - - 0.4
27/11:00am 21.4 23.0 17.8 80 2.2 ESE 6 19 3 10 - - 0.4
27/10:30am 23.8 23.4 15.3 59 5.1 SSE 11 19 6 10 - - 0.2
27/10:00am 24.2 24.5 15.9 59 5.0 SSE 9 22 5 12 - - 0.0
27/09:30am 23.6 24.8 16.9 66 4.1 S 6 13 3 7 - - 0.0
27/09:00am 22.3 23.4 17.0 72 3.3 S 7 11 4 6 - - 2.2
27/08:30am 21.2 22.9 18.0 82 2.0 SSW 6 9 3 5 - - 2.2
27/08:00am 19.1 20.8 17.2 89 1.2 SSW 4 7 2 4 - - 2.2
27/07:30am 18.3 20.2 16.8 91 0.9 SW 2 7 1 4 - - 2.2
27/07:00am 18.0 19.6 16.9 93 0.7 SW 4 6 2 3 - - 2.2
27/06:30am 17.3 19.0 16.2 93 0.7 SW 2 7 1 4 - - 2.2
27/06:00am 17.2 18.5 16.1 93 0.7 SSW 4 7 2 4 - - 2.2
27/05:30am 17.4 18.8 16.3 93 0.7 SSW 4 7 2 4 - - 2.2
27/05:00am 17.2 18.4 15.9 92 0.8 SW 4 7 2 4 - - 2.2
27/04:30am 17.4 18.8 16.3 93 0.7 SW 4 6 2 3 - - 2.2
27/04:00am 17.3 18.9 16.0 92 0.8 SW 2 6 1 3 - - 2.2
27/03:30am 17.1 18.9 15.6 91 0.9 CALM 0 0 0 0 - - 2.2
27/03:00am 17.6 19.7 16.3 92 0.8 CALM 0 6 0 3 - - 2.2
27/02:30am 17.7 19.9 16.4 92 0.8 CALM 0 4 0 2 - - 2.2
27/02:00am 17.7 19.1 16.4 92 0.8 SSW 4 7 2 4 - - 1.6
27/01:30am 17.6 19.0 16.3 92 0.8 SW 4 6 2 3 - - 1.4
27/01:00am 17.7 19.8 16.2 91 0.9 CALM 0 0 0 0 - - 1.2
27/12:30am 17.8 20.0 16.5 92 0.8 CALM 0 0 0 0 - - 1.0
27/12:00am 17.5 19.5 16.0 91 0.9 CALM 0 6 0 3 - - 0.4
 
Date/Time
EST
Tmp

°C
App
Tmp
°C
Dew
Point
°C
Rel
Hum
%
Delta-T

°C
Wind Press
QNH
hPa
Press
MSL
hPa
Rain
since
9 am
mm
Dir
 
Spd
km/h
Gust
km/h
Spd
kts
Gust
kts
26/11:30pm 17.3 19.1 15.5 89 1.1 CALM 0 0 0 0 - - 0.4
26/11:00pm 17.5 18.9 15.5 88 1.2 SW 2 6 1 3 - - 0.4
26/10:30pm 17.9 18.7 15.9 88 1.2 SW 6 7 3 4 - - 0.4
26/10:00pm 17.7 18.5 15.9 89 1.1 SW 6 6 3 3 - - 0.4
26/09:30pm 17.5 18.6 15.5 88 1.2 SW 4 6 2 3 - - 0.4
26/09:00pm 17.8 18.9 15.6 87 1.3 SW 4 7 2 4 - - 0.4
26/08:30pm 18.0 19.8 15.6 86 1.4 CALM 0 0 0 0 - - 0.4

Latest Capital City Observations: Canberra | Sydney | Melbourne | Brisbane | Adelaide | Perth | Hobart | Darwin

Other Formats:

Comma delimited format used in spreadsheet applications
http://www.bom.gov.au/fwo/IDQ60901/IDQ60901.95566.axf

JavaScript Object Notation format (JSON) in row-major order
http://www.bom.gov.au/fwo/IDQ60901/IDQ60901.95566.json